Time;durP1;ratioP1;P1;durP2;ratioP2;P2;SDS_P1;SDS_P2;PMS_P1;PMS_P2;Temp;Humidity;BMP_temperature;BMP_pressure;BME280_temperature;BME280_humidity;BME280_pressure;Samples;Min_cycle;Max_cycle;Signal;HPM_P1;HPM_P2
2023/03/08 00:00:57;;;;;;;;;;;;;;;23.18;31.19;94305.97;5035194;28;1412;-75
2023/03/08 00:03:23;;;;;;;;;;;;;;;23.09;31.39;94311.69;5017524;28;1511;-74
2023/03/08 00:05:48;;;;;;;;;;;;;;;23.01;31.63;94298.69;5025609;28;1282;-75
2023/03/08 00:08:13;;;;;;;;;;;;;;;23.04;31.64;94298.22;5017539;28;1902;-75
2023/03/08 00:10:39;;;;;;;;;;;;;;;22.98;32.02;94307.19;4999547;28;1412;-75
2023/03/08 00:13:04;;;;;;;;;;;;;;;23.16;31.55;94306.19;5019894;28;1147;-74
2023/03/08 00:15:29;;;;;;;;;;;;;;;23.08;31.84;94304.72;5023476;28;1354;-75
2023/03/08 00:17:54;;;;;;;;;;;;;;;23.06;32.72;94306.81;5007269;28;1377;-75
2023/03/08 00:20:20;;;;;;;;;;;;;;;22.99;31.84;94299.97;5016994;28;866;-74
2023/03/08 00:22:45;;;;;;;;;;;;;;;23.24;31.79;94302.31;4997926;28;1451;-76
2023/03/08 00:25:11;;;;;;;;;;;;;;;23.30;32.13;94304.03;5015193;28;942;-75
2023/03/08 00:27:36;;;;;;;;;;;;;;;23.22;31.79;94301.75;5014562;28;1903;-75
2023/03/08 00:30:05;;;;;;;;;;;;;;;23.37;32.14;94315.44;5005714;28;1056;-75
2023/03/08 00:32:31;;;;;;;;;;;;;;;23.27;31.95;94308.00;5006562;28;1307;-74
2023/03/08 00:34:56;;;;;;;;;;;;;;;23.42;31.82;94304.78;5016279;28;1543;-74
2023/03/08 00:37:22;;;;;;;;;;;;;;;23.37;32.02;94304.72;5002145;28;1177;-75
2023/03/08 00:39:51;;;;;;;;;;;;;;;23.40;31.78;94304.25;4994468;28;1342;-73
2023/03/08 00:42:16;;;;;;;;;;;;;;;23.38;32.32;94295.63;5014292;28;998;-74
2023/03/08 00:44:42;;;;;;;;;;;;;;;23.28;31.93;94298.09;5014714;28;1342;-73
2023/03/08 00:47:07;;;;;;;;;;;;;;;23.26;31.94;94300.22;5022488;28;1906;-69
2023/03/08 00:49:32;;;;;;;;;;;;;;;23.31;31.90;94305.69;4998419;28;1310;-69
2023/03/08 00:51:57;;;;;;;;;;;;;;;23.31;31.81;94297.66;4994466;28;1346;-69
2023/03/08 00:54:23;;;;;;;;;;;;;;;23.30;31.84;94294.13;5014324;28;1330;-69
2023/03/08 00:56:48;;;;;;;;;;;;;;;23.33;31.80;94298.19;5027900;28;1331;-69
2023/03/08 00:59:13;;;;;;;;;;;;;;;23.34;31.83;94303.34;4984562;28;1184;-69
2023/03/08 01:01:39;;;;;;;;;;;;;;;23.34;31.68;94289.94;5037625;23;1680;-69
2023/03/08 01:04:04;;;;;;;;;;;;;;;23.36;32.08;94295.03;5023357;28;1070;-69
2023/03/08 01:06:29;;;;;;;;;;;;;;;23.32;32.04;94297.41;5034559;28;1370;-69
2023/03/08 01:08:55;;;;;;;;;;;;;;;23.37;31.99;94296.69;5027030;28;1964;-69
2023/03/08 01:11:22;;;;;;;;;;;;;;;23.44;31.96;94302.69;5033280;28;913;-69
2023/03/08 01:13:47;;;;;;;;;;;;;;;23.45;31.88;94304.34;5028049;28;1205;-69
2023/03/08 01:16:20;;;;;;;;;;;;;;;23.39;32.10;94304.47;5000366;28;1350;-70
2023/03/08 01:18:46;;;;;;;;;;;;;;;23.37;32.16;94298.53;5029594;28;1084;-70
2023/03/08 01:21:11;;;;;;;;;;;;;;;23.36;32.02;94308.44;5021079;28;1409;-71
2023/03/08 01:23:37;;;;;;;;;;;;;;;23.39;32.05;94310.63;5035319;28;1062;-71
2023/03/08 01:26:07;;;;;;;;;;;;;;;23.38;32.21;94314.38;5010151;28;1322;-70
2023/03/08 01:28:33;;;;;;;;;;;;;;;23.36;32.12;94303.06;5038036;28;1906;-71
2023/03/08 01:31:05;;;;;;;;;;;;;;;23.37;32.40;94303.88;5033053;28;965;-71
2023/03/08 01:33:30;;;;;;;;;;;;;;;23.37;32.46;94302.03;5015454;28;1233;-71
2023/03/08 01:35:56;;;;;;;;;;;;;;;23.38;32.51;94295.63;5012413;28;1543;-70
2023/03/08 01:38:22;;;;;;;;;;;;;;;23.44;32.30;94308.03;5027961;28;1317;-71
2023/03/08 01:40:47;;;;;;;;;;;;;;;23.48;32.37;94308.38;5013016;28;934;-71
2023/03/08 01:43:24;;;;;;;;;;;;;;;23.55;32.16;94323.25;5017429;28;1088;-70
2023/03/08 01:46:08;;;;;;;;;;;;;;;23.57;32.03;94310.44;5031236;28;1326;-70
2023/03/08 01:48:41;;;;;;;;;;;;;;;23.57;32.11;94323.81;5005232;28;1901;-71
2023/03/08 01:51:08;;;;;;;;;;;;;;;23.62;32.20;94325.75;5014121;28;1417;-71
2023/03/08 01:53:34;;;;;;;;;;;;;;;23.64;32.26;94317.50;5018308;28;1344;-71
2023/03/08 01:56:00;;;;;;;;;;;;;;;23.39;32.44;94302.59;5032675;28;866;-72
2023/03/08 01:58:25;;;;;;;;;;;;;;;23.21;33.04;94302.81;5014569;28;1471;-71
2023/03/08 02:00:51;;;;;;;;;;;;;;;23.28;32.81;94315.00;5003603;28;1305;-72
2023/03/08 02:03:16;;;;;;;;;;;;;;;23.16;33.12;94313.41;5012909;28;1147;-71
2023/03/08 02:05:42;;;;;;;;;;;;;;;23.07;33.26;94308.44;4995451;28;1208;-71
2023/03/08 02:08:08;;;;;;;;;;;;;;;23.11;33.97;94320.28;5013157;28;1899;-69
2023/03/08 02:10:34;;;;;;;;;;;;;;;23.43;33.13;94317.13;5007823;28;1318;-70
2023/03/08 02:13:00;;;;;;;;;;;;;;;23.58;32.52;94320.06;5008771;28;1186;-71
2023/03/08 02:15:25;;;;;;;;;;;;;;;23.41;32.97;94307.72;5013006;28;1353;-70
2023/03/08 02:17:50;;;;;;;;;;;;;;;23.45;32.90;94322.25;5012524;28;1156;-70
2023/03/08 02:20:18;;;;;;;;;;;;;;;23.28;33.13;94315.00;4999728;28;1243;-71
2023/03/08 02:22:43;;;;;;;;;;;;;;;23.18;33.47;94305.97;4974152;28;1225;-70
2023/03/08 02:25:13;;;;;;;;;;;;;;;23.25;33.17;94318.16;4995525;28;1312;-72
2023/03/08 02:27:38;;;;;;;;;;;;;;;23.30;33.09;94306.72;4993843;28;1949;-72
2023/03/08 02:30:03;;;;;;;;;;;;;;;23.10;33.58;94310.63;5030066;28;1251;-72
2023/03/08 02:32:28;;;;;;;;;;;;;;;23.06;33.76;94304.13;5026504;28;1095;-71
2023/03/08 02:34:54;;;;;;;;;;;;;;;23.02;33.86;94302.97;4984980;28;1177;-71
2023/03/08 02:37:19;;;;;;;;;;;;;;;23.06;33.99;94316.72;4991854;28;1362;-72
2023/03/08 02:39:44;;;;;;;;;;;;;;;23.03;34.00;94307.28;4995077;28;1307;-71
2023/03/08 02:42:10;;;;;;;;;;;;;;;23.01;33.65;94330.78;5003790;28;1437;-71
2023/03/08 02:44:35;;;;;;;;;;;;;;;22.99;33.87;94319.50;5001111;28;1479;-72
2023/03/08 02:47:00;;;;;;;;;;;;;;;22.95;34.00;94321.03;4989961;28;1878;-72
2023/03/08 02:49:25;;;;;;;;;;;;;;;22.95;33.95;94323.72;5007482;28;1276;-71
2023/03/08 02:51:51;;;;;;;;;;;;;;;22.92;34.04;94324.16;5031684;28;1283;-71
2023/03/08 02:54:16;;;;;;;;;;;;;;;22.98;33.83;94331.25;4994957;28;1349;-69
2023/03/08 02:56:41;;;;;;;;;;;;;;;22.95;33.90;94344.28;5011094;28;1339;-69
2023/03/08 02:59:07;;;;;;;;;;;;;;;23.06;33.78;94344.28;5013763;28;1218;-71
2023/03/08 03:01:32;;;;;;;;;;;;;;;23.20;33.75;94331.44;5023211;28;1492;-71
2023/03/08 03:03:57;;;;;;;;;;;;;;;23.30;33.41;94341.50;5033342;28;1009;-71
2023/03/08 03:06:23;;;;;;;;;;;;;;;23.39;33.51;94342.75;5010159;28;1350;-70
2023/03/08 03:08:48;;;;;;;;;;;;;;;23.61;32.84;94342.06;4993941;28;1918;-70
2023/03/08 03:11:17;;;;;;;;;;;;;;;23.57;33.09;94355.94;5035313;28;857;-69
2023/03/08 03:13:43;;;;;;;;;;;;;;;23.63;33.22;94342.66;5002438;28;1200;-69
2023/03/08 03:16:10;;;;;;;;;;;;;;;24.00;32.29;94343.84;5008381;28;1220;-68
2023/03/08 03:18:35;;;;;;;;;;;;;;;23.53;33.16;94346.75;4991426;28;1317;-70
2023/03/08 03:21:05;;;;;;;;;;;;;;;23.24;33.73;94345.13;4992999;28;1240;-70
2023/03/08 03:23:30;;;;;;;;;;;;;;;23.22;33.72;94364.09;5016501;28;1130;-70
2023/03/08 03:25:55;;;;;;;;;;;;;;;23.32;33.67;94366.97;5023172;28;1338;-71
2023/03/08 03:28:20;;;;;;;;;;;;;;;23.34;33.58;94350.69;5018349;28;1906;-71
2023/03/08 03:30:46;;;;;;;;;;;;;;;23.35;33.59;94358.47;5025044;28;1130;-71
2023/03/08 03:33:11;;;;;;;;;;;;;;;23.42;33.40;94354.84;5024305;28;1170;-71
2023/03/08 03:35:38;;;;;;;;;;;;;;;23.50;33.49;94360.63;5015204;28;921;-71
2023/03/08 03:38:03;;;;;;;;;;;;;;;23.56;33.42;94357.00;5013525;28;1124;-69
2023/03/08 03:40:28;;;;;;;;;;;;;;;23.58;33.25;94354.88;4997462;28;1157;-70
2023/03/08 03:42:53;;;;;;;;;;;;;;;23.60;33.31;94356.53;5010172;28;1313;-70
2023/03/08 03:45:19;;;;;;;;;;;;;;;23.65;33.10;94362.78;5026785;28;1218;-70
2023/03/08 03:47:44;;;;;;;;;;;;;;;23.71;32.93;94369.88;5008046;28;1906;-70
2023/03/08 03:50:09;;;;;;;;;;;;;;;23.68;33.17;94377.53;5034297;28;1472;-71
2023/03/08 03:52:35;;;;;;;;;;;;;;;23.68;33.11;94377.53;5004990;28;1337;-70
2023/03/08 03:55:00;;;;;;;;;;;;;;;23.77;32.86;94381.50;4991816;28;1303;-71
2023/03/08 03:57:25;;;;;;;;;;;;;;;23.81;33.21;94377.28;4980780;28;1636;-71
2023/03/08 03:59:51;;;;;;;;;;;;;;;23.79;33.12;94396.28;5014743;28;964;-70
2023/03/08 04:02:16;;;;;;;;;;;;;;;23.76;32.92;94387.91;4997861;28;1433;-71
2023/03/08 04:04:41;;;;;;;;;;;;;;;23.58;27.42;94378.16;5005859;28;1311;-72
2023/03/08 04:07:06;;;;;;;;;;;;;;;22.57;28.24;94375.00;5014402;28;1902;-71
2023/03/08 04:09:32;;;;;;;;;;;;;;;22.92;30.27;94382.19;5028843;28;1246;-69
2023/03/08 04:12:01;;;;;;;;;;;;;;;23.21;30.34;94377.72;5034552;28;814;-71
2023/03/08 04:14:26;;;;;;;;;;;;;;;22.65;25.71;94388.84;4999590;28;1158;-71
2023/03/08 04:16:52;;;;;;;;;;;;;;;21.09;25.92;94377.38;4985180;28;1091;-74
2023/03/08 04:19:17;;;;;;;;;;;;;;;20.70;25.52;94374.13;4996305;28;1287;-72
2023/03/08 04:21:42;;;;;;;;;;;;;;;19.83;26.00;94365.25;4996581;28;1335;-72
2023/03/08 04:24:07;;;;;;;;;;;;;;;19.52;26.35;94372.19;4995988;28;1189;-71
2023/03/08 04:26:33;;;;;;;;;;;;;;;19.55;25.93;94377.91;5011065;28;1346;-72
2023/03/08 04:28:59;;;;;;;;;;;;;;;19.56;25.40;94389.34;5004880;28;1899;-71
2023/03/08 04:31:25;;;;;;;;;;;;;;;19.54;25.68;94394.88;4997726;28;1381;-72
2023/03/08 04:33:51;;;;;;;;;;;;;;;19.13;25.97;94378.53;5007684;28;1286;-72
2023/03/08 04:36:17;;;;;;;;;;;;;;;19.01;26.16;94384.53;5020460;28;1405;-72
2023/03/08 04:38:42;;;;;;;;;;;;;;;19.03;25.44;94379.78;5002490;28;1246;-72
2023/03/08 04:41:11;;;;;;;;;;;;;;;18.81;25.96;94381.09;5013793;28;1306;-72
2023/03/08 04:43:39;;;;;;;;;;;;;;;18.57;26.42;94388.69;5015050;28;1330;-73
2023/03/08 04:46:05;;;;;;;;;;;;;;;18.80;26.37;94385.59;5032147;28;1507;-73
2023/03/08 04:48:30;;;;;;;;;;;;;;;18.72;26.44;94377.00;5007688;28;1969;-74
2023/03/08 04:50:56;;;;;;;;;;;;;;;18.60;26.90;94367.03;5008881;28;1492;-72
2023/03/08 04:53:22;;;;;;;;;;;;;;;19.04;26.50;94386.75;5001163;28;1378;-74
2023/03/08 04:55:48;;;;;;;;;;;;;;;19.07;26.24;94396.97;5013595;28;1282;-74
2023/03/08 04:58:13;;;;;;;;;;;;;;;19.42;26.05;94390.47;4996097;28;1446;-72
2023/03/08 05:00:39;;;;;;;;;;;;;;;19.85;25.64;94395.13;5022139;28;1390;-71
2023/03/08 05:03:05;;;;;;;;;;;;;;;19.48;25.55;94386.94;4990760;28;1277;-73
2023/03/08 05:05:30;;;;;;;;;;;;;;;19.21;25.69;94386.25;5016990;28;1413;-72
2023/03/08 05:07:55;;;;;;;;;;;;;;;18.84;25.83;94391.31;5004524;28;2025;-73
2023/03/08 05:10:21;;;;;;;;;;;;;;;19.04;25.80;94397.38;5011587;28;1319;-72
2023/03/08 05:12:46;;;;;;;;;;;;;;;19.04;25.61;94408.03;5006564;28;1183;-73
2023/03/08 05:15:12;;;;;;;;;;;;;;;19.36;26.10;94413.41;5001180;28;1364;-73
2023/03/08 05:17:37;;;;;;;;;;;;;;;19.89;26.49;94415.78;4987892;28;1483;-71
2023/03/08 05:20:03;;;;;;;;;;;;;;;20.32;26.24;94420.38;5012460;28;1409;-72
2023/03/08 05:22:28;;;;;;;;;;;;;;;20.70;26.00;94423.97;4995738;28;1193;-72
2023/03/08 05:24:53;;;;;;;;;;;;;;;20.94;26.03;94422.25;4985683;28;1196;-71
2023/03/08 05:27:19;;;;;;;;;;;;;;;21.14;26.09;94422.03;5013310;28;1961;-71
2023/03/08 05:29:44;;;;;;;;;;;;;;;21.26;26.07;94420.25;4995695;28;1350;-71
2023/03/08 05:32:10;;;;;;;;;;;;;;;21.36;26.19;94430.41;5012714;28;862;-72
2023/03/08 05:34:35;;;;;;;;;;;;;;;21.42;26.39;94429.53;5009394;28;919;-71
2023/03/08 05:37:00;;;;;;;;;;;;;;;21.48;26.29;94432.09;5007384;28;1068;-71
2023/03/08 05:39:26;;;;;;;;;;;;;;;21.53;26.34;94450.94;4995346;28;1445;-71
2023/03/08 05:41:51;;;;;;;;;;;;;;;21.55;26.42;94461.41;5013465;28;927;-71
2023/03/08 05:44:16;;;;;;;;;;;;;;;21.58;26.59;94460.13;5013010;28;819;-71
2023/03/08 05:46:42;;;;;;;;;;;;;;;21.63;26.53;94457.59;4985332;28;1252;-71
2023/03/08 05:49:07;;;;;;;;;;;;;;;21.65;26.84;94461.66;5012598;28;1906;-71
2023/03/08 05:51:32;;;;;;;;;;;;;;;21.69;26.82;94460.19;5012972;28;938;-71
2023/03/08 05:53:57;;;;;;;;;;;;;;;21.72;26.93;94456.25;5012969;28;872;-71
2023/03/08 05:56:23;;;;;;;;;;;;;;;21.74;26.88;94455.00;5012923;28;980;-71
2023/03/08 05:58:49;;;;;;;;;;;;;;;21.77;26.83;94454.53;4985367;28;1208;-71
2023/03/08 06:01:16;;;;;;;;;;;;;;;21.83;26.86;94460.81;5012792;28;1348;-72
2023/03/08 06:03:42;;;;;;;;;;;;;;;21.87;26.84;94455.84;4995172;28;1179;-71
2023/03/08 06:06:07;;;;;;;;;;;;;;;21.95;26.83;94484.91;4995243;28;1492;-71
2023/03/08 06:08:32;;;;;;;;;;;;;;;22.01;26.70;94479.47;4994039;28;1962;-72
2023/03/08 06:10:58;;;;;;;;;;;;;;;22.08;26.71;94475.88;5004039;28;1105;-72
2023/03/08 06:13:23;;;;;;;;;;;;;;;22.11;26.83;94480.75;4995183;28;1341;-71
2023/03/08 06:15:53;;;;;;;;;;;;;;;22.15;26.72;94477.41;5012998;28;866;-71
2023/03/08 06:18:18;;;;;;;;;;;;;;;22.21;26.89;94483.72;4995126;28;1196;-72
2023/03/08 06:20:43;;;;;;;;;;;;;;;22.20;26.99;94488.25;5003911;28;1100;-72
2023/03/08 06:23:09;;;;;;;;;;;;;;;22.27;26.75;94493.50;5011808;28;1020;-71
2023/03/08 06:25:34;;;;;;;;;;;;;;;22.30;26.81;94495.72;4995352;28;1321;-71
2023/03/08 06:27:59;;;;;;;;;;;;;;;22.30;26.76;94495.72;5013216;28;1969;-71
2023/03/08 06:30:24;;;;;;;;;;;;;;;22.31;26.85;94501.88;5012729;28;958;-71
2023/03/08 06:32:50;;;;;;;;;;;;;;;22.36;26.79;94502.00;5004179;28;1179;-71
2023/03/08 06:35:15;;;;;;;;;;;;;;;22.38;27.06;94505.28;4998809;28;1174;-71
2023/03/08 06:37:40;;;;;;;;;;;;;;;22.38;27.05;94503.41;5016371;28;883;-71
2023/03/08 06:40:08;;;;;;;;;;;;;;;22.37;27.05;94515.16;5016483;28;818;-71
2023/03/08 06:42:33;;;;;;;;;;;;;;;22.38;26.91;94506.06;5016382;28;913;-71
2023/03/08 06:44:58;;;;;;;;;;;;;;;22.39;26.91;94498.88;5006340;28;1052;-71
2023/03/08 06:47:24;;;;;;;;;;;;;;;22.39;27.10;94509.56;5016903;28;1911;-71
2023/03/08 06:49:49;;;;;;;;;;;;;;;22.43;26.97;94510.75;5016359;28;968;-72
2023/03/08 06:52:14;;;;;;;;;;;;;;;22.47;26.74;94511.09;4998611;28;1330;-72
2023/03/08 06:54:40;;;;;;;;;;;;;;;22.47;27.13;94511.91;5011085;28;1004;-72
2023/03/08 06:57:05;;;;;;;;;;;;;;;22.51;26.98;94515.75;4994256;28;1435;-70
2023/03/08 06:59:30;;;;;;;;;;;;;;;22.52;26.95;94525.41;5016231;28;913;-72
2023/03/08 07:01:56;;;;;;;;;;;;;;;22.53;26.99;94526.22;5015828;28;1437;-71
2023/03/08 07:04:21;;;;;;;;;;;;;;;22.52;27.15;94530.75;5015821;28;940;-71
2023/03/08 07:06:46;;;;;;;;;;;;;;;22.53;27.23;94527.03;4988408;28;1211;-71
2023/03/08 07:09:12;;;;;;;;;;;;;;;22.53;27.06;94529.69;4997992;28;1902;-71
2023/03/08 07:11:38;;;;;;;;;;;;;;;22.55;27.17;94538.31;5015773;28;830;-71
2023/03/08 07:14:03;;;;;;;;;;;;;;;22.56;27.27;94537.25;5015523;28;811;-71
2023/03/08 07:16:28;;;;;;;;;;;;;;;22.59;27.23;94544.81;4998039;28;1352;-72
2023/03/08 07:18:55;;;;;;;;;;;;;;;22.61;27.04;94548.06;5005466;28;1120;-71
2023/03/08 07:21:21;;;;;;;;;;;;;;;22.60;27.24;94546.47;5015656;28;893;-70
2023/03/08 07:23:46;;;;;;;;;;;;;;;22.62;27.27;94552.38;5015458;28;866;-71
2023/03/08 07:26:11;;;;;;;;;;;;;;;22.61;27.08;94548.06;4997648;28;1173;-72
2023/03/08 07:28:37;;;;;;;;;;;;;;;22.62;27.24;94547.03;5011043;28;1894;-72
2023/03/08 07:31:02;;;;;;;;;;;;;;;22.62;27.28;94562.25;5010710;28;1214;-72
2023/03/08 07:33:27;;;;;;;;;;;;;;;22.65;27.31;94567.97;4997899;28;1197;-71
2023/03/08 07:35:53;;;;;;;;;;;;;;;22.65;27.17;94556.44;5015335;28;869;-72
2023/03/08 07:38:18;;;;;;;;;;;;;;;22.64;27.21;94552.97;4997625;28;1225;-72
2023/03/08 07:40:43;;;;;;;;;;;;;;;22.66;27.31;94550.06;4987686;28;1482;-72
2023/03/08 07:43:09;;;;;;;;;;;;;;;22.64;27.38;94544.13;5014908;28;843;-72
2023/03/08 07:45:36;;;;;;;;;;;;;;;22.63;27.10;94540.66;4997559;28;1339;-73
2023/03/08 07:48:01;;;;;;;;;;;;;;;22.63;27.38;94543.31;4997436;28;1894;-71
2023/03/08 07:50:27;;;;;;;;;;;;;;;22.63;27.22;94543.31;5015046;28;894;-70
2023/03/08 07:52:52;;;;;;;;;;;;;;;22.65;27.38;94546.59;5005135;28;1092;-71
2023/03/08 07:55:17;;;;;;;;;;;;;;;22.65;27.49;94548.44;4996730;28;1288;-71
2023/03/08 07:57:42;;;;;;;;;;;;;;;22.63;27.31;94546.00;5014793;28;921;-71
2023/03/08 08:00:08;;;;;;;;;;;;;;;22.62;27.39;94555.03;4997103;28;1725;-71
2023/03/08 08:02:34;;;;;;;;;;;;;;;22.66;27.34;94548.22;5009677;28;1447;-71
2023/03/08 08:04:59;;;;;;;;;;;;;;;22.69;27.34;94552.28;4991899;28;1369;-71
2023/03/08 08:07:25;;;;;;;;;;;;;;;22.65;27.34;94557.28;5014590;28;1969;-70
2023/03/08 08:09:50;;;;;;;;;;;;;;;22.66;27.37;94555.44;4997055;28;1410;-70
2023/03/08 08:12:15;;;;;;;;;;;;;;;22.70;27.39;94561.13;5014454;28;873;-71
2023/03/08 08:14:41;;;;;;;;;;;;;;;22.67;27.66;94560.53;4987089;28;1193;-71
2023/03/08 08:17:06;;;;;;;;;;;;;;;22.70;27.57;94563.78;4996621;28;1390;-71
2023/03/08 08:19:31;;;;;;;;;;;;;;;22.68;27.58;94556.81;4996848;28;1307;-71
2023/03/08 08:21:57;;;;;;;;;;;;;;;22.72;27.46;94554.50;5014489;28;962;-71
2023/03/08 08:24:22;;;;;;;;;;;;;;;22.76;27.33;94550.31;5014446;28;869;-71
2023/03/08 08:26:47;;;;;;;;;;;;;;;22.78;27.51;94555.44;4986849;28;1164;-72
2023/03/08 08:29:13;;;;;;;;;;;;;;;22.82;27.28;94557.41;5014318;28;1969;-70
2023/03/08 08:31:38;;;;;;;;;;;;;;;22.86;27.26;94552.44;5014230;28;877;-71
2023/03/08 08:34:04;;;;;;;;;;;;;;;22.90;27.53;94559.75;5014161;28;952;-71
2023/03/08 08:36:29;;;;;;;;;;;;;;;22.93;27.39;94561.16;4991679;28;1301;-71
2023/03/08 08:38:54;;;;;;;;;;;;;;;22.92;27.35;94566.75;5008801;28;1148;-71
2023/03/08 08:41:20;;;;;;;;;;;;;;;22.93;27.45;94560.34;4996449;28;1290;-75
2023/03/08 08:43:46;;;;;;;;;;;;;;;22.94;27.24;94564.63;5014036;28;1068;-70
2023/03/08 08:46:11;;;;;;;;;;;;;;;22.96;27.28;94559.91;4995965;28;1186;-71
2023/03/08 08:48:37;;;;;;;;;;;;;;;22.98;27.34;94561.31;4986431;28;1910;-71
2023/03/08 08:51:04;;;;;;;;;;;;;;;23.01;27.30;94557.34;4995146;28;1429;-71
2023/03/08 08:53:29;;;;;;;;;;;;;;;23.00;27.23;94556.56;4996218;28;1295;-71
2023/03/08 08:55:54;;;;;;;;;;;;;;;23.04;27.16;94563.06;4995469;28;1232;-71
2023/03/08 08:58:19;;;;;;;;;;;;;;;23.01;27.29;94552.81;5013756;28;827;-72
2023/03/08 09:00:45;;;;;;;;;;;;;;;23.01;27.24;94560.03;5003524;28;1200;-71
2023/03/08 09:03:10;;;;;;;;;;;;;;;23.03;27.50;94558.75;4995996;28;1244;-71
2023/03/08 09:05:40;;;;;;;;;;;;;;;23.03;27.25;94558.75;5013620;28;890;-71
2023/03/08 09:08:06;;;;;;;;;;;;;;;23.02;27.41;94559.78;5013509;28;1975;-71
2023/03/08 09:10:32;;;;;;;;;;;;;;;23.04;27.16;94565.72;4991731;28;1301;-71
2023/03/08 09:12:58;;;;;;;;;;;;;;;23.06;27.20;94560.97;5007460;28;1064;-70
2023/03/08 09:15:24;;;;;;;;;;;;;;;23.08;27.16;94556.22;4995819;28;1288;-71
2023/03/08 09:17:49;;;;;;;;;;;;;;;23.08;27.25;94553.53;5013383;28;894;-71
2023/03/08 09:20:15;;;;;;;;;;;;;;;23.09;27.16;94557.81;5013352;28;842;-71
2023/03/08 09:22:40;;;;;;;;;;;;;;;23.10;27.33;94548.75;5003780;28;1146;-71
2023/03/08 09:25:06;;;;;;;;;;;;;;;23.11;27.26;94547.72;5012990;28;1180;-71
2023/03/08 09:27:32;;;;;;;;;;;;;;;23.13;27.24;94550.94;5013187;28;1905;-71
2023/03/08 09:29:57;;;;;;;;;;;;;;;23.15;27.21;94548.06;5013396;28;952;-71
2023/03/08 09:32:23;;;;;;;;;;;;;;;23.17;27.13;94547.81;5013522;28;941;-71
2023/03/08 09:34:49;;;;;;;;;;;;;;;23.16;27.11;94541.66;5003299;28;978;-72
2023/03/08 09:37:14;;;;;;;;;;;;;;;23.13;27.31;94536.75;5013552;28;921;-72
2023/03/08 09:39:39;;;;;;;;;;;;;;;23.15;27.16;94540.03;5013156;28;823;-72
2023/03/08 09:42:05;;;;;;;;;;;;;;;23.19;27.28;94545.72;4995458;28;1615;-71
2023/03/08 09:44:44;;;;;;;;;;;;;;;22.97;27.30;94506.19;4993754;28;1200;-72
2023/03/08 09:47:32;;;;;;;;;;;;;;;23.11;27.35;94531.66;5008006;28;1906;-72
2023/03/08 09:50:03;;;;;;;;;;;;;;;23.12;27.36;94530.59;5007362;28;1211;-71
2023/03/08 09:52:37;;;;;;;;;;;;;;;23.13;27.26;94529.53;5013356;28;815;-72
2023/03/08 09:55:03;;;;;;;;;;;;;;;23.18;27.16;94522.69;4995373;28;1192;-72
2023/03/08 09:57:38;;;;;;;;;;;;;;;23.17;27.18;94513.88;5003104;28;1081;-72
2023/03/08 10:00:10;;;;;;;;;;;;;;;23.18;27.25;94515.47;5013180;28;950;-72
2023/03/08 10:02:36;;;;;;;;;;;;;;;23.19;27.17;94524.31;4996071;28;1265;-72
2023/03/08 10:05:10;;;;;;;;;;;;;;;23.19;27.38;94521.63;5012894;28;838;-71
2023/03/08 10:07:50;;;;;;;;;;;;;;;23.20;27.47;94517.94;5010541;28;1977;-72
2023/03/08 10:10:18;;;;;;;;;;;;;;;23.17;27.31;94513.88;5011744;28;1162;-71
2023/03/08 10:12:53;;;;;;;;;;;;;;;23.17;27.28;94516.53;4999113;28;1339;-71
2023/03/08 10:15:21;;;;;;;;;;;;;;;23.18;27.30;94510.13;4999036;28;1426;-72
2023/03/08 10:17:51;;;;;;;;;;;;;;;23.21;27.26;94508.84;5016636;28;923;-71
2023/03/08 10:20:19;;;;;;;;;;;;;;;23.20;27.43;94505.38;5006679;28;985;-71
2023/03/08 10:22:47;;;;;;;;;;;;;;;23.20;27.36;94499.19;4999053;28;1356;-71
2023/03/08 10:25:20;;;;;;;;;;;;;;;23.21;27.46;94503.50;5016811;28;778;-71
2023/03/08 10:27:47;;;;;;;;;;;;;;;23.20;27.34;94496.53;5016503;28;1977;-72
2023/03/08 10:30:14;;;;;;;;;;;;;;;23.20;27.52;94493.84;4994112;28;1358;-72
2023/03/08 10:32:43;;;;;;;;;;;;;;;23.21;27.39;94500.81;4993567;28;1233;-71
2023/03/08 10:35:08;;;;;;;;;;;;;;;23.24;27.36;94495.81;4998008;28;1533;-71
2023/03/08 10:37:34;;;;;;;;;;;;;;;23.25;27.44;94496.63;5016388;28;965;-71
2023/03/08 10:40:03;;;;;;;;;;;;;;;23.24;27.27;94495.81;5016380;28;885;-72
2023/03/08 10:42:30;;;;;;;;;;;;;;;23.23;27.49;94488.03;5006496;28;1065;-72
2023/03/08 10:45:23;;;;;;;;;;;;;;;23.24;27.36;94485.09;4998680;28;1450;-72
2023/03/08 10:47:55;;;;;;;;;;;;;;;23.24;27.45;94495.81;5014301;28;1906;-73
2023/03/08 10:50:22;;;;;;;;;;;;;;;23.27;27.29;94489.16;4998380;28;1452;-69
2023/03/08 10:52:49;;;;;;;;;;;;;;;23.24;27.39;94479.75;4994516;28;1287;-70
2023/03/08 10:55:16;;;;;;;;;;;;;;;23.26;27.47;94482.22;5010835;28;1030;-70
2023/03/08 10:57:48;;;;;;;;;;;;;;;23.25;27.41;94470.69;5016203;28;811;-71
2023/03/08 11:00:19;;;;;;;;;;;;;;;23.25;27.41;94469.84;4998366;28;1259;-71
2023/03/08 11:02:48;;;;;;;;;;;;;;;23.22;27.51;94470.31;5015890;28;890;-72
2023/03/08 11:05:16;;;;;;;;;;;;;;;23.20;27.70;94467.91;5005807;28;1044;-71
2023/03/08 11:07:48;;;;;;;;;;;;;;;23.24;27.45;94458.34;4998061;28;1914;-71
2023/03/08 11:10:18;;;;;;;;;;;;;;;23.24;27.32;94462.88;5016047;28;823;-71
2023/03/08 11:12:44;;;;;;;;;;;;;;;23.24;27.29;94460.22;5015596;28;811;-71
2023/03/08 11:15:13;;;;;;;;;;;;;;;23.22;27.52;94449.72;4997745;28;1374;-71
2023/03/08 11:17:40;;;;;;;;;;;;;;;23.21;27.68;94441.94;5005502;28;1066;-71
2023/03/08 11:20:12;;;;;;;;;;;;;;;23.20;27.60;94443.00;5014994;28;838;-71
2023/03/08 11:22:55;;;;;;;;;;;;;;;23.24;27.39;94444.97;5015497;28;889;-70
2023/03/08 11:25:21;;;;;;;;;;;;;;;23.26;27.35;94439.38;4997848;28;1270;-71
2023/03/08 11:28:06;;;;;;;;;;;;;;;23.26;27.34;94434.03;5005865;28;1918;-71
2023/03/08 11:30:46;;;;;;;;;;;;;;;23.26;27.52;94426.00;5015490;28;901;-71
2023/03/08 11:33:27;;;;;;;;;;;;;;;23.22;27.40;94414.94;5015310;28;854;-72
2023/03/08 11:35:58;;;;;;;;;;;;;;;23.25;27.57;94414.50;5015385;28;866;-71
2023/03/08 11:38:24;;;;;;;;;;;;;;;23.24;27.43;94406.69;5010433;28;1089;-71
2023/03/08 11:40:56;;;;;;;;;;;;;;;23.28;27.42;94399.81;5009934;28;1045;-71
2023/03/08 11:43:30;;;;;;;;;;;;;;;23.26;27.43;94396.56;4997391;28;1433;-71
2023/03/08 11:46:05;;;;;;;;;;;;;;;23.27;27.62;94400.84;5015307;28;910;-71
2023/03/08 11:48:30;;;;;;;;;;;;;;;23.27;27.41;94392.84;5015066;28;1902;-72
2023/03/08 11:51:07;;;;;;;;;;;;;;;23.27;27.52;94392.84;4987588;28;1511;-71
2023/03/08 11:53:52;;;;;;;;;;;;;;;23.25;27.70;94397.59;4997323;28;1468;-71
2023/03/08 11:56:26;;;;;;;;;;;;;;;23.27;27.58;94395.50;5014896;28;827;-71
2023/03/08 11:59:00;;;;;;;;;;;;;;;23.31;27.47;94388.66;4997880;28;1311;-74
2023/03/08 12:01:38;;;;;;;;;;;;;;;23.32;27.55;94390.25;4993457;28;1258;-71
2023/03/08 12:04:07;;;;;;;;;;;;;;;23.27;27.62;94384.81;5013417;28;1063;-71
2023/03/08 12:06:39;;;;;;;;;;;;;;;23.30;27.53;94377.09;5014817;28;831;-71
2023/03/08 12:09:18;;;;;;;;;;;;;;;23.32;27.50;94384.91;4997330;28;1956;-71
2023/03/08 12:11:46;;;;;;;;;;;;;;;23.33;27.60;94373.13;4997038;28;1330;-71
2023/03/08 12:14:20;;;;;;;;;;;;;;;23.35;27.52;94371.84;5004743;28;996;-72
2023/03/08 12:16:54;;;;;;;;;;;;;;;23.37;27.46;94371.63;5014964;28;857;-72
2023/03/08 12:19:36;;;;;;;;;;;;;;;23.34;27.52;94372.13;4997980;28;1312;-71
2023/03/08 12:22:22;;;;;;;;;;;;;;;23.37;27.43;94376.16;5015018;28;932;-71
2023/03/08 12:24:47;;;;;;;;;;;;;;;23.35;27.51;94371.06;5005353;28;1079;-72
2023/03/08 12:27:21;;;;;;;;;;;;;;;23.33;27.56;94375.81;5015324;28;1973;-72
2023/03/08 12:30:06;;;;;;;;;;;;;;;23.34;27.44;94372.13;4996722;28;1176;-72
2023/03/08 12:32:31;;;;;;;;;;;;;;;23.35;27.63;94363.81;5015294;28;949;-71
2023/03/08 12:35:03;;;;;;;;;;;;;;;23.37;27.60;94370.78;4997128;28;1612;-72
2023/03/08 12:37:29;;;;;;;;;;;;;;;23.37;27.46;94368.97;5008480;28;1176;-72
2023/03/08 12:40:07;;;;;;;;;;;;;;;23.40;27.53;94371.16;4997343;28;1214;-72
2023/03/08 12:42:39;;;;;;;;;;;;;;;23.41;27.66;94371.97;5015002;28;846;-72
2023/03/08 12:45:06;;;;;;;;;;;;;;;23.38;27.46;94362.53;4993215;28;1193;-72
2023/03/08 12:47:31;;;;;;;;;;;;;;;23.40;27.50;94368.47;4984821;28;1883;-72
2023/03/08 12:50:05;;;;;;;;;;;;;;;23.42;27.42;94368.22;4978243;28;1277;-72
2023/03/08 12:52:33;;;;;;;;;;;;;;;23.40;27.38;94349.75;4994954;28;914;-72
2023/03/08 12:55:30;;;;;;;;;;;;;;;23.38;27.60;94346.47;4993749;28;1359;-72
2023/03/08 12:57:57;;;;;;;;;;;;;;;23.39;27.59;94348.09;4989009;28;1280;-72
2023/03/08 13:00:28;;;;;;;;;;;;;;;23.38;27.61;94346.47;4989811;28;1317;-71